Clear Horizons — VJN4380 — position and weather

sailwx.info

Track history (hours):
 
Tides and Currents Weather Stations Pressure Air Temp Water Temp Dewpoint Dewpoint Depression Visibility Wind Speed Wind Dir Waves Ship Positions

Clear Horizons

Last reported at 2018-Jan-26 21:28 UTC. Time now 2018-Feb-25 21:45 UTC.
Position S 32°56' E 152°04'.
Warning: this ship's position is 30 days out of date.

Length 14 m.

Type: Sailing vessel. MMSI: 503572700.

Date/timePositionNaut miles runAvg speedWind from/ knotsBaromVisibWave heightAir tempDewpointWater temp
2018-Jan-26 21:28S 32°56' E 152°04'3 7.0
2018-Jan-26 20:58S 32°53' E 152°06'3 7.0
2018-Jan-26 20:29S 32°50' E 152°08'4 7.2
2018-Jan-26 19:58S 32°47' E 152°11'3 7.0
2018-Jan-26 19:30S 32°45' E 152°13'3 5.4
2018-Jan-26 19:00S 32°42' E 152°11'1 2.8
2018-Jan-26 18:29S 32°41' E 152°10'0 0.0
2018-Jan-26 17:59S 32°41' E 152°10'0 0.0
2018-Jan-26 17:29S 32°41' E 152°10'0 0.0
2018-Jan-26 16:59S 32°41' E 152°10'0 0.0
2018-Jan-26 16:29S 32°41' E 152°10'0 0.0
2018-Jan-26 15:59S 32°41' E 152°10'0 0.0
2018-Jan-26 15:29S 32°41' E 152°10'0 0.0
2018-Jan-26 14:59S 32°41' E 152°10'0 0.0
2018-Jan-26 14:29S 32°41' E 152°10'0 0.0
2018-Jan-26 13:59S 32°41' E 152°10'0 0.0
2018-Jan-26 13:29S 32°41' E 152°10'0 0.0
2018-Jan-26 12:59S 32°41' E 152°10'0 0.0
2018-Jan-26 12:29S 32°41' E 152°10'0 0.2
2018-Jan-26 11:59S 32°41' E 152°10'0 0.1
2018-Jan-26 11:29S 32°41' E 152°10'0 0.0
2018-Jan-26 10:59S 32°41' E 152°10'0 0.0
2018-Jan-26 10:29S 32°41' E 152°10'0 0.0
2018-Jan-26 09:59S 32°41' E 152°10'0 0.0
2018-Jan-26 09:29S 32°41' E 152°10'0 0.0
2018-Jan-26 08:59S 32°41' E 152°10'0 0.0
2018-Jan-26 08:29S 32°41' E 152°10'2 4.6
2018-Jan-26 08:00S 32°42' E 152°12'4 7.7
2018-Jan-26 07:28S 32°40' E 152°17'4 8.2
2018-Jan-26 07:00S 32°38' E 152°20'  
2018-Jan-23 23:44S 28°22' E 153°39'2 9.0
2018-Jan-23 23:30S 28°20' E 153°39'4 8.7
2018-Jan-23 23:00S 28°16' E 153°39'4 8.5
2018-Jan-23 22:31S 28°11' E 153°38'4 8.0
2018-Jan-23 22:00S 28°08' E 153°36'4 7.6
2018-Jan-23 21:30S 28°05' E 153°33'4 7.2
2018-Jan-23 21:00S 28°02' E 153°31'4 7.1
2018-Jan-23 20:28S 27°59' E 153°29'4 6.4
2018-Jan-23 19:54S 27°56' E 153°26'2 3.5
2018-Jan-23 19:29S 27°55' E 153°25'0 0.0
2018-Jan-23 18:59S 27°55' E 153°25'0 0.0
2018-Jan-23 18:26S 27°55' E 153°25'0 0.0
2018-Jan-23 17:53S 27°55' E 153°25'0 0.0
2018-Jan-23 16:23S 27°55' E 153°25'0 0.0
2018-Jan-23 10:47S 27°55' E 153°25'0 0.0
2018-Jan-23 09:26S 27°55' E 153°25'0 0.0
2018-Jan-23 08:56S 27°55' E 153°25'0 0.0
2018-Jan-23 08:23S 27°55' E 153°25'0 0.0
2018-Jan-23 07:59S 27°55' E 153°25'0 0.0
2018-Jan-23 07:29S 27°55' E 153°25'0 0.0
2018-Jan-23 06:59S 27°55' E 153°25'0 0.0
2018-Jan-23 06:29S 27°55' E 153°25'0 0.0
2018-Jan-23 05:59S 27°55' E 153°25'0 0.0
2018-Jan-23 05:29S 27°55' E 153°25'0 0.0
2018-Jan-23 04:56S 27°55' E 153°25'0 0.0
2018-Jan-23 04:29S 27°55' E 153°25'0 0.5
2018-Jan-23 03:59S 27°55' E 153°25'3 5.5
2018-Jan-23 03:30S 27°52' E 153°24'1 2.6
2018-Jan-23 03:00S 27°52' E 153°23'2 3.5
2018-Jan-23 02:29S 27°52' E 153°21'1 1.9
2018-Jan-23 02:00S 27°52' E 153°20'0 0.2
2018-Jan-23 01:27S 27°52' E 153°20'0 0.0
2018-Jan-23 00:57S 27°52' E 153°20'0 0.0
2018-Jan-23 00:27S 27°52' E 153°20'0 0.0
2018-Jan-22 23:57S 27°52' E 153°20'0 0.0
2018-Jan-22 23:30S 27°52' E 153°20'0 0.0
2018-Jan-22 23:00S 27°52' E 153°20'0 0.0
2018-Jan-22 22:30S 27°52' E 153°20'0 0.0
2018-Jan-22 21:57S 27°52' E 153°20'0 0.0
2018-Jan-22 21:30S 27°52' E 153°20'0 0.0
2018-Jan-22 21:00S 27°52' E 153°20'0 0.0
2018-Jan-22 20:30S 27°52' E 153°20'0 0.0
2018-Jan-22 19:57S 27°52' E 153°20'0 0.0
2018-Jan-22 19:12S 27°52' E 153°20'0 0.0
2018-Jan-22 19:00S 27°52' E 153°20'0 0.0
2018-Jan-22 18:27S 27°52' E 153°20'0 0.0
2018-Jan-22 17:57S 27°52' E 153°20'0 0.0
2018-Jan-22 17:21S 27°52' E 153°20'0 0.0
2018-Jan-22 17:00S 27°52' E 153°20'0 0.0
2018-Jan-22 16:24S 27°52' E 153°20'0 0.0
2018-Jan-22 13:21S 27°52' E 153°20'0 0.0
2018-Jan-22 13:00S 27°52' E 153°20'0 0.0
2018-Jan-22 12:30S 27°52' E 153°20'0 0.0
2018-Jan-22 12:00S 27°52' E 153°20'0 0.0
2018-Jan-22 11:21S 27°52' E 153°20'0 0.0
2018-Jan-22 10:57S 27°52' E 153°20'0 0.0
2018-Jan-22 10:24S 27°52' E 153°20'0 0.0
2018-Jan-22 10:00S 27°52' E 153°20'0 0.0
2018-Jan-22 09:30S 27°52' E 153°20'0 0.0
2018-Jan-22 08:54S 27°52' E 153°20'0 0.0
2018-Jan-22 08:30S 27°52' E 153°20'0 0.0
2018-Jan-22 08:00S 27°52' E 153°20'0 0.0
2018-Jan-22 07:30S 27°52' E 153°20'0 0.0
2018-Jan-22 07:00S 27°52' E 153°20'0 0.0
2018-Jan-22 06:30S 27°52' E 153°20'0 0.0
2018-Jan-22 05:54S 27°52' E 153°20'0 0.0
2018-Jan-22 05:30S 27°52' E 153°20'0 0.0
2018-Jan-22 04:57S 27°52' E 153°20'0 0.0
2018-Jan-22 04:30S 27°52' E 153°20'0 0.0
2018-Jan-22 02:42S 27°52' E 153°20'0 0.0
2018-Jan-22 02:28S 27°52' E 153°20'0 0.0
2018-Jan-22 02:00S 27°52' E 153°20'0 0.0
2018-Jan-22 00:51S 27°52' E 153°20'0 0.0
2018-Jan-22 00:30S 27°52' E 153°20'0 0.0
2018-Jan-21 23:12S 27°52' E 153°20'0 0.0
2018-Jan-21 22:54S 27°52' E 153°20'0 0.0
2018-Jan-21 22:27S 27°52' E 153°20'0 0.0
2018-Jan-21 22:00S 27°52' E 153°20'0 0.0
2018-Jan-21 21:31S 27°52' E 153°20'0 0.0
2018-Jan-21 20:57S 27°52' E 153°20'0 0.0
2018-Jan-21 20:21S 27°52' E 153°20'0 0.0
2018-Jan-21 16:51S 27°52' E 153°20'0 0.0
2018-Jan-21 16:30S 27°52' E 153°20'0 0.0
2018-Jan-21 16:00S 27°52' E 153°20'0 0.0
2018-Jan-21 15:21S 27°52' E 153°20'0 0.0
2018-Jan-21 14:54S 27°52' E 153°20'0 0.0
2018-Jan-21 14:13S 27°52' E 153°20'0 0.0
2018-Jan-21 13:57S 27°52' E 153°20'0 0.0
2018-Jan-21 13:27S 27°52' E 153°20'0 0.0
2018-Jan-21 12:58S 27°52' E 153°20'0 0.0
2018-Jan-21 12:15S 27°52' E 153°20'0 0.0
2018-Jan-21 11:49S 27°52' E 153°20'0 0.0
2018-Jan-21 11:28S 27°52' E 153°20'0 0.0
2018-Jan-21 07:24S 27°52' E 153°20'0 0.0
2018-Jan-21 05:42S 27°52' E 153°20'0 0.0
2018-Jan-21 05:24S 27°52' E 153°20'0 0.0
2018-Jan-21 05:01S 27°52' E 153°20'0 0.0
2018-Jan-21 04:27S 27°52' E 153°20'0 0.0
2018-Jan-21 03:46S 27°52' E 153°20'0 0.1
2018-Jan-21 03:30S 27°52' E 153°20'0 0.0
2018-Jan-21 02:52S 27°52' E 153°20'0 0.0
2018-Jan-21 02:24S 27°52' E 153°20'0 0.0
2018-Jan-21 02:00S 27°52' E 153°20'0 0.0
2018-Jan-21 01:31S 27°52' E 153°20'0 0.0
2018-Jan-21 01:01S 27°52' E 153°20'0 0.0
2018-Jan-21 00:31S 27°52' E 153°20'0 0.0
2018-Jan-21 00:01S 27°52' E 153°20'0 0.0
2018-Jan-20 23:28S 27°52' E 153°20'0 0.0
2018-Jan-20 22:58S 27°52' E 153°20'0 0.0
2018-Jan-20 22:30S 27°52' E 153°20'0 0.0
2018-Jan-20 21:54S 27°52' E 153°20'0 0.0
2018-Jan-20 21:30S 27°52' E 153°20'0 0.0
2018-Jan-20 21:00S 27°52' E 153°20'0 0.0
2018-Jan-20 20:27S 27°52' E 153°20'0 0.0
2018-Jan-20 20:00S 27°52' E 153°20'0 0.0
2018-Jan-20 19:24S 27°52' E 153°20'0 0.0
2018-Jan-20 19:01S 27°52' E 153°20'0 0.0
2018-Jan-20 18:30S 27°52' E 153°20'0 0.0
2018-Jan-20 17:55S 27°52' E 153°20'0 0.0
2018-Jan-20 17:18S 27°52' E 153°20'0 0.0
2018-Jan-20 16:51S 27°52' E 153°20'0 0.0
2018-Jan-20 16:30S 27°52' E 153°20'0 0.0
2018-Jan-20 15:57S 27°52' E 153°20'0 0.0
2018-Jan-20 15:25S 27°52' E 153°20'0 0.0
2018-Jan-20 14:42S 27°52' E 153°20'0 0.0
2018-Jan-20 14:19S 27°52' E 153°20'0 0.0
2018-Jan-20 14:00S 27°52' E 153°20'0 0.0
2018-Jan-20 12:36S 27°52' E 153°20'0 0.0
2018-Jan-20 12:31S 27°52' E 153°20'0 0.0
2018-Jan-20 11:57S 27°52' E 153°20'0 0.0
2018-Jan-20 11:30S 27°52' E 153°20'0 0.0
2018-Jan-20 11:00S 27°52' E 153°20'0 0.0
2018-Jan-20 10:27S 27°52' E 153°20'0 0.0
2018-Jan-20 10:01S 27°52' E 153°20'0 0.0
2018-Jan-20 09:27S 27°52' E 153°20'0 0.0
2018-Jan-20 09:00S 27°52' E 153°20'0 0.0
2018-Jan-20 08:30S 27°52' E 153°20'0 0.0
2018-Jan-20 07:52S 27°52' E 153°20'0 0.0
2018-Jan-20 07:30S 27°52' E 153°20'0 0.0
2018-Jan-20 06:56S 27°52' E 153°20'0 0.0
2018-Jan-20 06:26S 27°52' E 153°20'0 0.0
2018-Jan-20 05:59S 27°52' E 153°20'0 0.0
2018-Jan-20 05:29S 27°52' E 153°20'0 0.0
2018-Jan-20 04:59S 27°52' E 153°20'0 0.0
2018-Jan-20 04:29S 27°52' E 153°20'0 0.0
2018-Jan-20 03:59S 27°52' E 153°20'0 0.1
2018-Jan-20 03:29S 27°52' E 153°20'0 0.1
2018-Jan-20 02:59S 27°52' E 153°20'0 0.0
2018-Jan-20 02:29S 27°52' E 153°20'0 0.0
2018-Jan-20 01:59S 27°52' E 153°20'0 0.0
2018-Jan-20 01:29S 27°52' E 153°20'0 0.0
2018-Jan-20 00:59S 27°52' E 153°20'0 0.0
2018-Jan-20 00:26S 27°52' E 153°20'0 0.0
2018-Jan-19 23:59S 27°52' E 153°20'0 0.0
2018-Jan-19 23:26S 27°52' E 153°20'0 0.0
2018-Jan-19 22:59S 27°52' E 153°20'0 0.0
2018-Jan-19 22:29S 27°52' E 153°20'0 0.0
2018-Jan-19 21:59S 27°52' E 153°20'0 0.0
2018-Jan-19 21:29S 27°52' E 153°20'0 0.0
2018-Jan-19 20:59S 27°52' E 153°20'0 0.0
2018-Jan-19 20:29S 27°52' E 153°20'0 0.0
2018-Jan-19 19:59S 27°52' E 153°20'0 0.0
2018-Jan-19 19:29S 27°52' E 153°20'0 0.0
2018-Jan-19 18:56S 27°52' E 153°20'0 0.0
2018-Jan-19 18:29S 27°52' E 153°20'0 0.0
2018-Jan-19 17:59S 27°52' E 153°20'0 0.0
2018-Jan-19 17:26S 27°52' E 153°20'0 0.0
2018-Jan-19 16:59S 27°52' E 153°20'0 0.0
2018-Jan-19 16:23S 27°52' E 153°20'0 0.0
2018-Jan-19 15:59S 27°52' E 153°20'0 0.0
2018-Jan-19 15:29S 27°52' E 153°20'0 0.0
2018-Jan-19 14:59S 27°52' E 153°20'0 0.0
2018-Jan-19 14:29S 27°52' E 153°20'0 0.0
2018-Jan-19 13:56S 27°52' E 153°20'0 0.0
2018-Jan-19 13:20S 27°52' E 153°20'0 0.0
2018-Jan-19 12:59S 27°52' E 153°20'0 0.0
2018-Jan-19 12:26S 27°52' E 153°20'0 0.0
2018-Jan-19 11:59S 27°52' E 153°20'0 0.0
2018-Jan-19 11:11S 27°52' E 153°20'0 0.0
2018-Jan-19 10:56S 27°52' E 153°20'0 0.0
2018-Jan-19 10:26S 27°52' E 153°20'0 0.0
2018-Jan-19 09:56S 27°52' E 153°20'0 0.0
2018-Jan-19 09:26S 27°52' E 153°20'0 0.0
2018-Jan-19 08:59S 27°52' E 153°20'0 0.0
2018-Jan-19 08:17S 27°52' E 153°20'0 0.0
2018-Jan-19 07:59S 27°52' E 153°20'0 0.0
2018-Jan-19 07:29S 27°52' E 153°20'0 0.0
2018-Jan-19 06:56S 27°52' E 153°20'0 0.0
2018-Jan-19 06:26S 27°52' E 153°20'0 0.0
2018-Jan-19 05:59S 27°52' E 153°20'0 0.0
2018-Jan-19 05:29S 27°52' E 153°20'0 0.0
2018-Jan-19 04:59S 27°52' E 153°20'0 0.0
2018-Jan-19 04:29S 27°52' E 153°20'0 0.0
2018-Jan-19 03:56S 27°52' E 153°20'0 0.0
2018-Jan-19 02:56S 27°52' E 153°20'0 0.0
2018-Jan-19 02:29S 27°52' E 153°20'0 0.0
2018-Jan-19 02:00S 27°52' E 153°20'0 0.0
2018-Jan-19 01:28S 27°52' E 153°20'0 0.0
2018-Jan-19 00:57S 27°52' E 153°20'0 0.0
2018-Jan-19 00:30S 27°52' E 153°20'0 0.0
2018-Jan-19 00:00S 27°52' E 153°20'0 0.0
2018-Jan-18 23:30S 27°52' E 153°20'0 0.0
2018-Jan-18 23:01S 27°52' E 153°20'0 0.0
2018-Jan-18 22:30S 27°52' E 153°20'0 0.0
2018-Jan-18 22:00S 27°52' E 153°20'0 0.0
2018-Jan-18 21:30S 27°52' E 153°20'0 0.0
2018-Jan-18 21:00S 27°52' E 153°20'0 0.0
2018-Jan-18 20:31S 27°52' E 153°20'0 0.0
2018-Jan-18 20:01S 27°52' E 153°20'0 0.0
2018-Jan-18 19:30S 27°52' E 153°20'0 0.0
2018-Jan-18 19:00S 27°52' E 153°20'0 0.0
2018-Jan-18 18:31S 27°52' E 153°20'0 0.0
2018-Jan-18 18:00S 27°52' E 153°20'0 0.0
2018-Jan-18 17:30S 27°52' E 153°20'0 0.0
2018-Jan-18 17:00S 27°52' E 153°20'0 0.0
2018-Jan-18 16:30S 27°52' E 153°20'0 0.0
2018-Jan-18 16:00S 27°52' E 153°20'0 0.0
2018-Jan-18 15:27S 27°52' E 153°20'0 0.0
2018-Jan-18 14:58S 27°52' E 153°20'0 0.0
2018-Jan-18 14:28S 27°52' E 153°20'0 0.0
2018-Jan-18 13:58S 27°52' E 153°20'0 0.0
2018-Jan-18 13:22S 27°52' E 153°20'0 0.0
2018-Jan-18 12:58S 27°52' E 153°20'0 0.0
2018-Jan-18 12:25S 27°52' E 153°20'0 0.0
2018-Jan-18 11:58S 27°52' E 153°20'0 0.0
2018-Jan-18 11:28S 27°52' E 153°20'0 0.0
2018-Jan-18 10:55S 27°52' E 153°20'0 0.0
2018-Jan-18 10:28S 27°52' E 153°20'0 0.0
2018-Jan-18 09:58S 27°52' E 153°20'0 0.0
2018-Jan-18 09:28S 27°52' E 153°20'0 0.0
2018-Jan-18 08:55S 27°52' E 153°20'0 0.0
2018-Jan-18 08:28S 27°52' E 153°20'0 0.0
2018-Jan-18 07:58S 27°52' E 153°20'0 0.0
2018-Jan-18 07:28S 27°52' E 153°20'0 0.0
2018-Jan-18 06:58S 27°52' E 153°20'0 0.0
2018-Jan-18 06:28S 27°52' E 153°20'0 0.0
2018-Jan-18 05:58S 27°52' E 153°20'0 0.0
2018-Jan-18 05:28S 27°52' E 153°20'0 0.0
2018-Jan-18 04:55S 27°52' E 153°20'0 0.0
2018-Jan-18 04:28S 27°52' E 153°20'0 0.0
2018-Jan-18 03:58S 27°52' E 153°20'0 0.0
2018-Jan-18 03:18S 27°52' E 153°20'0 0.0
2018-Jan-18 03:00S 27°52' E 153°20'0 0.0
2018-Jan-18 02:30S 27°52' E 153°20'0 0.0
2018-Jan-18 02:00S 27°52' E 153°20'0 0.0
2018-Jan-18 01:27S 27°52' E 153°20'0 0.0
2018-Jan-18 01:00S 27°52' E 153°20'0 0.0
2018-Jan-18 00:00S 27°52' E 153°20'0 0.1
2018-Jan-17 23:57S 27°52' E 153°20'  
Track history (hours):
 
Tides and Currents Weather Stations Pressure Air Temp Water Temp Dewpoint Dewpoint Depression Visibility Wind Speed Wind Dir Waves Ship Positions

Clear Horizons

Last reported at 2018-Jan-26 21:28 UTC. Time now 2018-Feb-25 21:45 UTC.
Position S 32°56' E 152°04'.
Warning: this ship's position is 30 days out of date.

Length 14 m.

Type: Sailing vessel. MMSI: 503572700.

Date/timePositionNaut miles runAvg speedWind from/ knotsBaromVisibWave heightAir tempDewpointWater temp
2018-Jan-26 21:28S 32°56' E 152°04'3 7.0
2018-Jan-26 20:58S 32°53' E 152°06'3 7.0
2018-Jan-26 20:29S 32°50' E 152°08'4 7.2
2018-Jan-26 19:58S 32°47' E 152°11'3 7.0
2018-Jan-26 19:30S 32°45' E 152°13'3 5.4
2018-Jan-26 19:00S 32°42' E 152°11'1 2.8
2018-Jan-26 18:29S 32°41' E 152°10'0 0.0
2018-Jan-26 17:59S 32°41' E 152°10'0 0.0
2018-Jan-26 17:29S 32°41' E 152°10'0 0.0
2018-Jan-26 16:59S 32°41' E 152°10'0 0.0
2018-Jan-26 16:29S 32°41' E 152°10'0 0.0
2018-Jan-26 15:59S 32°41' E 152°10'0 0.0
2018-Jan-26 15:29S 32°41' E 152°10'0 0.0
2018-Jan-26 14:59S 32°41' E 152°10'0 0.0
2018-Jan-26 14:29S 32°41' E 152°10'0 0.0
2018-Jan-26 13:59S 32°41' E 152°10'0 0.0
2018-Jan-26 13:29S 32°41' E 152°10'0 0.0
2018-Jan-26 12:59S 32°41' E 152°10'0 0.0
2018-Jan-26 12:29S 32°41' E 152°10'0 0.2
2018-Jan-26 11:59S 32°41' E 152°10'0 0.1
2018-Jan-26 11:29S 32°41' E 152°10'0 0.0
2018-Jan-26 10:59S 32°41' E 152°10'0 0.0
2018-Jan-26 10:29S 32°41' E 152°10'0 0.0
2018-Jan-26 09:59S 32°41' E 152°10'0 0.0
2018-Jan-26 09:29S 32°41' E 152°10'0 0.0
2018-Jan-26 08:59S 32°41' E 152°10'0 0.0
2018-Jan-26 08:29S 32°41' E 152°10'2 4.6
2018-Jan-26 08:00S 32°42' E 152°12'4 7.7
2018-Jan-26 07:28S 32°40' E 152°17'4 8.2
2018-Jan-26 07:00S 32°38' E 152°20'  
2018-Jan-23 23:44S 28°22' E 153°39'2 9.0
2018-Jan-23 23:30S 28°20' E 153°39'4 8.7
2018-Jan-23 23:00S 28°16' E 153°39'4 8.5
2018-Jan-23 22:31S 28°11' E 153°38'4 8.0
2018-Jan-23 22:00S 28°08' E 153°36'4 7.6
2018-Jan-23 21:30S 28°05' E 153°33'4 7.2
2018-Jan-23 21:00S 28°02' E 153°31'4 7.1
2018-Jan-23 20:28S 27°59' E 153°29'4 6.4
2018-Jan-23 19:54S 27°56' E 153°26'2 3.5
2018-Jan-23 19:29S 27°55' E 153°25'0 0.0
2018-Jan-23 18:59S 27°55' E 153°25'0 0.0
2018-Jan-23 18:26S 27°55' E 153°25'0 0.0
2018-Jan-23 17:53S 27°55' E 153°25'0 0.0
2018-Jan-23 16:23S 27°55' E 153°25'0 0.0
2018-Jan-23 10:47S 27°55' E 153°25'0 0.0
2018-Jan-23 09:26S 27°55' E 153°25'0 0.0
2018-Jan-23 08:56S 27°55' E 153°25'0 0.0
2018-Jan-23 08:23S 27°55' E 153°25'0 0.0
2018-Jan-23 07:59S 27°55' E 153°25'0 0.0
2018-Jan-23 07:29S 27°55' E 153°25'0 0.0
2018-Jan-23 06:59S 27°55' E 153°25'0 0.0
2018-Jan-23 06:29S 27°55' E 153°25'0 0.0
2018-Jan-23 05:59S 27°55' E 153°25'0 0.0
2018-Jan-23 05:29S 27°55' E 153°25'0 0.0
2018-Jan-23 04:56S 27°55' E 153°25'0 0.0
2018-Jan-23 04:29S 27°55' E 153°25'0 0.5
2018-Jan-23 03:59S 27°55' E 153°25'3 5.5
2018-Jan-23 03:30S 27°52' E 153°24'1 2.6
2018-Jan-23 03:00S 27°52' E 153°23'2 3.5
2018-Jan-23 02:29S 27°52' E 153°21'1 1.9
2018-Jan-23 02:00S 27°52' E 153°20'0 0.2
2018-Jan-23 01:27S 27°52' E 153°20'0 0.0
2018-Jan-23 00:57S 27°52' E 153°20'0 0.0
2018-Jan-23 00:27S 27°52' E 153°20'0 0.0
2018-Jan-22 23:57S 27°52' E 153°20'0 0.0
2018-Jan-22 23:30S 27°52' E 153°20'0 0.0
2018-Jan-22 23:00S 27°52' E 153°20'0 0.0
2018-Jan-22 22:30S 27°52' E 153°20'0 0.0
2018-Jan-22 21:57S 27°52' E 153°20'0 0.0
2018-Jan-22 21:30S 27°52' E 153°20'0 0.0
2018-Jan-22 21:00S 27°52' E 153°20'0 0.0
2018-Jan-22 20:30S 27°52' E 153°20'0 0.0
2018-Jan-22 19:57S 27°52' E 153°20'0 0.0
2018-Jan-22 19:12S 27°52' E 153°20'0 0.0
2018-Jan-22 19:00S 27°52' E 153°20'0 0.0
2018-Jan-22 18:27S 27°52' E 153°20'0 0.0
2018-Jan-22 17:57S 27°52' E 153°20'0 0.0
2018-Jan-22 17:21S 27°52' E 153°20'0 0.0
2018-Jan-22 17:00S 27°52' E 153°20'0 0.0
2018-Jan-22 16:24S 27°52' E 153°20'0 0.0
2018-Jan-22 13:21S 27°52' E 153°20'0 0.0
2018-Jan-22 13:00S 27°52' E 153°20'0 0.0
2018-Jan-22 12:30S 27°52' E 153°20'0 0.0
2018-Jan-22 12:00S 27°52' E 153°20'0 0.0
2018-Jan-22 11:21S 27°52' E 153°20'0 0.0
2018-Jan-22 10:57S 27°52' E 153°20'0 0.0
2018-Jan-22 10:24S 27°52' E 153°20'0 0.0
2018-Jan-22 10:00S 27°52' E 153°20'0 0.0
2018-Jan-22 09:30S 27°52' E 153°20'0 0.0
2018-Jan-22 08:54S 27°52' E 153°20'0 0.0
2018-Jan-22 08:30S 27°52' E 153°20'0 0.0
2018-Jan-22 08:00S 27°52' E 153°20'0 0.0
2018-Jan-22 07:30S 27°52' E 153°20'0 0.0
2018-Jan-22 07:00S 27°52' E 153°20'0 0.0
2018-Jan-22 06:30S 27°52' E 153°20'0 0.0
2018-Jan-22 05:54S 27°52' E 153°20'0 0.0
2018-Jan-22 05:30S 27°52' E 153°20'0 0.0
2018-Jan-22 04:57S 27°52' E 153°20'0 0.0
2018-Jan-22 04:30S 27°52' E 153°20'0 0.0
2018-Jan-22 02:42S 27°52' E 153°20'0 0.0
2018-Jan-22 02:28S 27°52' E 153°20'0 0.0
2018-Jan-22 02:00S 27°52' E 153°20'0 0.0
2018-Jan-22 00:51S 27°52' E 153°20'0 0.0
2018-Jan-22 00:30S 27°52' E 153°20'0 0.0
2018-Jan-21 23:12S 27°52' E 153°20'0 0.0
2018-Jan-21 22:54S 27°52' E 153°20'0 0.0
2018-Jan-21 22:27S 27°52' E 153°20'0 0.0
2018-Jan-21 22:00S 27°52' E 153°20'0 0.0
2018-Jan-21 21:31S 27°52' E 153°20'0 0.0
2018-Jan-21 20:57S 27°52' E 153°20'0 0.0
2018-Jan-21 20:21S 27°52' E 153°20'0 0.0
2018-Jan-21 16:51S 27°52' E 153°20'0 0.0
2018-Jan-21 16:30S 27°52' E 153°20'0 0.0
2018-Jan-21 16:00S 27°52' E 153°20'0 0.0
2018-Jan-21 15:21S 27°52' E 153°20'0 0.0
2018-Jan-21 14:54S 27°52' E 153°20'0 0.0
2018-Jan-21 14:13S 27°52' E 153°20'0 0.0
2018-Jan-21 13:57S 27°52' E 153°20'0 0.0
2018-Jan-21 13:27S 27°52' E 153°20'0 0.0
2018-Jan-21 12:58S 27°52' E 153°20'0 0.0
2018-Jan-21 12:15S 27°52' E 153°20'0 0.0
2018-Jan-21 11:49S 27°52' E 153°20'0 0.0
2018-Jan-21 11:28S 27°52' E 153°20'0 0.0
2018-Jan-21 07:24S 27°52' E 153°20'0 0.0
2018-Jan-21 05:42S 27°52' E 153°20'0 0.0
2018-Jan-21 05:24S 27°52' E 153°20'0 0.0
2018-Jan-21 05:01S 27°52' E 153°20'0 0.0
2018-Jan-21 04:27S 27°52' E 153°20'0 0.0
2018-Jan-21 03:46S 27°52' E 153°20'0 0.1
2018-Jan-21 03:30S 27°52' E 153°20'0 0.0
2018-Jan-21 02:52S 27°52' E 153°20'0 0.0
2018-Jan-21 02:24S 27°52' E 153°20'0 0.0
2018-Jan-21 02:00S 27°52' E 153°20'0 0.0
2018-Jan-21 01:31S 27°52' E 153°20'0 0.0
2018-Jan-21 01:01S 27°52' E 153°20'0 0.0
2018-Jan-21 00:31S 27°52' E 153°20'0 0.0
2018-Jan-21 00:01S 27°52' E 153°20'0 0.0
2018-Jan-20 23:28S 27°52' E 153°20'0 0.0
2018-Jan-20 22:58S 27°52' E 153°20'0 0.0
2018-Jan-20 22:30S 27°52' E 153°20'0 0.0
2018-Jan-20 21:54S 27°52' E 153°20'0 0.0
2018-Jan-20 21:30S 27°52' E 153°20'0 0.0
2018-Jan-20 21:00S 27°52' E 153°20'0 0.0
2018-Jan-20 20:27S 27°52' E 153°20'0 0.0
2018-Jan-20 20:00S 27°52' E 153°20'0 0.0
2018-Jan-20 19:24S 27°52' E 153°20'0 0.0
2018-Jan-20 19:01S 27°52' E 153°20'0 0.0
2018-Jan-20 18:30S 27°52' E 153°20'0 0.0
2018-Jan-20 17:55S 27°52' E 153°20'0 0.0
2018-Jan-20 17:18S 27°52' E 153°20'0 0.0
2018-Jan-20 16:51S 27°52' E 153°20'0 0.0
2018-Jan-20 16:30S 27°52' E 153°20'0 0.0
2018-Jan-20 15:57S 27°52' E 153°20'0 0.0
2018-Jan-20 15:25S 27°52' E 153°20'0 0.0
2018-Jan-20 14:42S 27°52' E 153°20'0 0.0
2018-Jan-20 14:19S 27°52' E 153°20'0 0.0
2018-Jan-20 14:00S 27°52' E 153°20'0 0.0
2018-Jan-20 12:36S 27°52' E 153°20'0 0.0
2018-Jan-20 12:31S 27°52' E 153°20'0 0.0
2018-Jan-20 11:57S 27°52' E 153°20'0 0.0
2018-Jan-20 11:30S 27°52' E 153°20'0 0.0
2018-Jan-20 11:00S 27°52' E 153°20'0 0.0
2018-Jan-20 10:27S 27°52' E 153°20'0 0.0
2018-Jan-20 10:01S 27°52' E 153°20'0 0.0
2018-Jan-20 09:27S 27°52' E 153°20'0 0.0
2018-Jan-20 09:00S 27°52' E 153°20'0 0.0
2018-Jan-20 08:30S 27°52' E 153°20'0 0.0
2018-Jan-20 07:52S 27°52' E 153°20'0 0.0
2018-Jan-20 07:30S 27°52' E 153°20'0 0.0
2018-Jan-20 06:56S 27°52' E 153°20'0 0.0
2018-Jan-20 06:26S 27°52' E 153°20'0 0.0
2018-Jan-20 05:59S 27°52' E 153°20'0 0.0
2018-Jan-20 05:29S 27°52' E 153°20'0 0.0
2018-Jan-20 04:59S 27°52' E 153°20'0 0.0
2018-Jan-20 04:29S 27°52' E 153°20'0 0.0
2018-Jan-20 03:59S 27°52' E 153°20'0 0.1
2018-Jan-20 03:29S 27°52' E 153°20'0 0.1
2018-Jan-20 02:59S 27°52' E 153°20'0 0.0
2018-Jan-20 02:29S 27°52' E 153°20'0 0.0
2018-Jan-20 01:59S 27°52' E 153°20'0 0.0
2018-Jan-20 01:29S 27°52' E 153°20'0 0.0
2018-Jan-20 00:59S 27°52' E 153°20'0 0.0
2018-Jan-20 00:26S 27°52' E 153°20'0 0.0
2018-Jan-19 23:59S 27°52' E 153°20'0 0.0
2018-Jan-19 23:26S 27°52' E 153°20'0 0.0
2018-Jan-19 22:59S 27°52' E 153°20'0 0.0
2018-Jan-19 22:29S 27°52' E 153°20'0 0.0
2018-Jan-19 21:59S 27°52' E 153°20'0 0.0
2018-Jan-19 21:29S 27°52' E 153°20'0 0.0
2018-Jan-19 20:59S 27°52' E 153°20'0 0.0
2018-Jan-19 20:29S 27°52' E 153°20'0 0.0
2018-Jan-19 19:59S 27°52' E 153°20'0 0.0
2018-Jan-19 19:29S 27°52' E 153°20'0 0.0
2018-Jan-19 18:56S 27°52' E 153°20'0 0.0
2018-Jan-19 18:29S 27°52' E 153°20'0 0.0
2018-Jan-19 17:59S 27°52' E 153°20'0 0.0
2018-Jan-19 17:26S 27°52' E 153°20'0 0.0
2018-Jan-19 16:59S 27°52' E 153°20'0 0.0
2018-Jan-19 16:23S 27°52' E 153°20'0 0.0
2018-Jan-19 15:59S 27°52' E 153°20'0 0.0
2018-Jan-19 15:29S 27°52' E 153°20'0 0.0
2018-Jan-19 14:59S 27°52' E 153°20'0 0.0
2018-Jan-19 14:29S 27°52' E 153°20'0 0.0
2018-Jan-19 13:56S 27°52' E 153°20'0 0.0
2018-Jan-19 13:20S 27°52' E 153°20'0 0.0
2018-Jan-19 12:59S 27°52' E 153°20'0 0.0
2018-Jan-19 12:26S 27°52' E 153°20'0 0.0
2018-Jan-19 11:59S 27°52' E 153°20'0 0.0
2018-Jan-19 11:11S 27°52' E 153°20'0 0.0
2018-Jan-19 10:56S 27°52' E 153°20'0 0.0
2018-Jan-19 10:26S 27°52' E 153°20'0 0.0
2018-Jan-19 09:56S 27°52' E 153°20'0 0.0
2018-Jan-19 09:26S 27°52' E 153°20'0 0.0
2018-Jan-19 08:59S 27°52' E 153°20'0 0.0
2018-Jan-19 08:17S 27°52' E 153°20'0 0.0
2018-Jan-19 07:59S 27°52' E 153°20'0 0.0
2018-Jan-19 07:29S 27°52' E 153°20'0 0.0
2018-Jan-19 06:56S 27°52' E 153°20'0 0.0
2018-Jan-19 06:26S 27°52' E 153°20'0 0.0
2018-Jan-19 05:59S 27°52' E 153°20'0 0.0
2018-Jan-19 05:29S 27°52' E 153°20'0 0.0
2018-Jan-19 04:59S 27°52' E 153°20'0 0.0
2018-Jan-19 04:29S 27°52' E 153°20'0 0.0
2018-Jan-19 03:56S 27°52' E 153°20'0 0.0
2018-Jan-19 02:56S 27°52' E 153°20'0 0.0
2018-Jan-19 02:29S 27°52' E 153°20'0 0.0
2018-Jan-19 02:00S 27°52' E 153°20'0 0.0
2018-Jan-19 01:28S 27°52' E 153°20'0 0.0
2018-Jan-19 00:57S 27°52' E 153°20'0 0.0
2018-Jan-19 00:30S 27°52' E 153°20'0 0.0
2018-Jan-19 00:00S 27°52' E 153°20'0 0.0
2018-Jan-18 23:30S 27°52' E 153°20'0 0.0
2018-Jan-18 23:01S 27°52' E 153°20'0 0.0
2018-Jan-18 22:30S 27°52' E 153°20'0 0.0
2018-Jan-18 22:00S 27°52' E 153°20'0 0.0
2018-Jan-18 21:30S 27°52' E 153°20'0 0.0
2018-Jan-18 21:00S 27°52' E 153°20'0 0.0
2018-Jan-18 20:31S 27°52' E 153°20'0 0.0
2018-Jan-18 20:01S 27°52' E 153°20'0 0.0
2018-Jan-18 19:30S 27°52' E 153°20'0 0.0
2018-Jan-18 19:00S 27°52' E 153°20'0 0.0
2018-Jan-18 18:31S 27°52' E 153°20'0 0.0
2018-Jan-18 18:00S 27°52' E 153°20'0 0.0
2018-Jan-18 17:30S 27°52' E 153°20'0 0.0
2018-Jan-18 17:00S 27°52' E 153°20'0 0.0
2018-Jan-18 16:30S 27°52' E 153°20'0 0.0
2018-Jan-18 16:00S 27°52' E 153°20'0 0.0
2018-Jan-18 15:27S 27°52' E 153°20'0 0.0
2018-Jan-18 14:58S 27°52' E 153°20'0 0.0
2018-Jan-18 14:28S 27°52' E 153°20'0 0.0
2018-Jan-18 13:58S 27°52' E 153°20'0 0.0
2018-Jan-18 13:22S 27°52' E 153°20'0 0.0
2018-Jan-18 12:58S 27°52' E 153°20'0 0.0
2018-Jan-18 12:25S 27°52' E 153°20'0 0.0
2018-Jan-18 11:58S 27°52' E 153°20'0 0.0
2018-Jan-18 11:28S 27°52' E 153°20'0 0.0
2018-Jan-18 10:55S 27°52' E 153°20'0 0.0
2018-Jan-18 10:28S 27°52' E 153°20'0 0.0
2018-Jan-18 09:58S 27°52' E 153°20'0 0.0
2018-Jan-18 09:28S 27°52' E 153°20'0 0.0
2018-Jan-18 08:55S 27°52' E 153°20'0 0.0
2018-Jan-18 08:28S 27°52' E 153°20'0 0.0
2018-Jan-18 07:58S 27°52' E 153°20'0 0.0
2018-Jan-18 07:28S 27°52' E 153°20'0 0.0
2018-Jan-18 06:58S 27°52' E 153°20'0 0.0
2018-Jan-18 06:28S 27°52' E 153°20'0 0.0
2018-Jan-18 05:58S 27°52' E 153°20'0 0.0
2018-Jan-18 05:28S 27°52' E 153°20'0 0.0
2018-Jan-18 04:55S 27°52' E 153°20'0 0.0
2018-Jan-18 04:28S 27°52' E 153°20'0 0.0
2018-Jan-18 03:58S 27°52' E 153°20'0 0.0
2018-Jan-18 03:18S 27°52' E 153°20'0 0.0
2018-Jan-18 03:00S 27°52' E 153°20'0 0.0
2018-Jan-18 02:30S 27°52' E 153°20'0 0.0
2018-Jan-18 02:00S 27°52' E 153°20'0 0.0
2018-Jan-18 01:27S 27°52' E 153°20'0 0.0
2018-Jan-18 01:00S 27°52' E 153°20'0 0.0
2018-Jan-18 00:00S 27°52' E 153°20'0 0.1
2018-Jan-17 23:57S 27°52' E 153°20'  

Dump ship's entire track history